Time;durP1;ratioP1;P1;durP2;ratioP2;P2;SDS_P1;SDS_P2;PMS_P1;PMS_P2;Temp;Humidity;BMP_temperature;BMP_pressure;BME280_temperature;BME280_humidity;BME280_pressure;Samples;Min_cycle;Max_cycle;Signal;HPM_P1;HPM_P2
2022/01/21 00:01:58;;;;;;;2.30;1.60;;;;;;;;;;5135851;28;20230;-65
2022/01/21 00:04:25;;;;;;;1.98;1.45;;;;;;;;;;5136301;28;20206;-67
2022/01/21 00:06:52;;;;;;;1.88;1.55;;;;;;;;;;5137365;27;20206;-66
2022/01/21 00:09:19;;;;;;;2.10;1.55;;;;;;;;;;5135831;27;20650;-65
2022/01/21 00:11:48;;;;;;;1.40;1.30;;;;;;;;;;5136554;27;20191;-66
2022/01/21 00:14:16;;;;;;;1.60;1.33;;;;;;;;;;5137533;27;20198;-65
2022/01/21 00:16:43;;;;;;;1.98;1.30;;;;;;;;;;5137811;28;20206;-65
2022/01/21 00:19:13;;;;;;;1.73;1.48;;;;;;;;;;5135981;28;20256;-67
2022/01/21 00:30:16;;;;;;;1.70;1.33;;;;;;;;;;5045566;28;20271;-65
2022/01/21 00:32:45;;;;;;;1.65;1.15;;;;;;;;;;5058337;28;20279;-66
2022/01/21 00:35:12;;;;;;;2.05;1.38;;;;;;;;;;5098179;27;20396;-66
2022/01/21 00:37:40;;;;;;;1.23;1.13;;;;;;;;;;5140205;27;20501;-66
2022/01/21 00:40:09;;;;;;;1.70;1.40;;;;;;;;;;5141072;27;20604;-66
2022/01/21 00:42:54;;;;;;;1.27;1.10;;;;;;;;;;5140397;27;20239;-65
2022/01/21 00:45:24;;;;;;;1.45;1.10;;;;;;;;;;5140563;27;20198;-65
2022/01/21 00:47:51;;;;;;;2.80;1.20;;;;;;;;;;5141349;27;20213;-65
2022/01/21 00:50:19;;;;;;;1.30;1.20;;;;;;;;;;5139567;27;20476;-65
2022/01/21 00:52:46;;;;;;;1.42;1.10;;;;;;;;;;5141103;27;20210;-65
2022/01/21 00:55:14;;;;;;;1.45;1.20;;;;;;;;;;5139669;27;20210;-65
2022/01/21 00:57:43;;;;;;;1.20;1.10;;;;;;;;;;5140435;27;20206;-67
2022/01/21 01:00:12;;;;;;;1.55;1.20;;;;;;;;;;5140337;27;20209;-66
2022/01/21 01:02:40;;;;;;;1.80;1.23;;;;;;;;;;5140723;27;20210;-65
2022/01/21 01:05:08;;;;;;;1.48;1.10;;;;;;;;;;5139549;27;20206;-65
2022/01/21 01:07:36;;;;;;;1.42;1.17;;;;;;;;;;5139992;27;20203;-66
2022/01/21 01:10:04;;;;;;;2.00;1.38;;;;;;;;;;5139904;27;20202;-66
2022/01/21 01:12:46;;;;;;;1.55;1.20;;;;;;;;;;5139294;27;20194;-66
2022/01/21 01:20:44;;;;;;;2.00;1.10;;;;;;;;;;5138070;27;20233;-65
2022/01/21 01:23:24;;;;;;;1.60;1.02;;;;;;;;;;5140064;27;20202;-65
2022/01/21 01:28:36;;;;;;;1.90;1.05;;;;;;;;;;5139257;27;20202;-65
2022/01/21 01:31:05;;;;;;;1.08;0.90;;;;;;;;;;5138997;27;20199;-65
2022/01/21 01:33:37;;;;;;;1.10;0.90;;;;;;;;;;5139596;27;20203;-66
2022/01/21 01:36:06;;;;;;;1.92;1.13;;;;;;;;;;5136844;27;20208;-66
2022/01/21 01:38:57;;;;;;;1.38;1.00;;;;;;;;;;5139007;27;20194;-66
2022/01/21 01:41:29;;;;;;;1.58;1.20;;;;;;;;;;5139228;27;20226;-66
2022/01/21 01:49:30;;;;;;;1.30;1.08;;;;;;;;;;5138964;27;20255;-65
2022/01/21 01:51:59;;;;;;;1.10;0.85;;;;;;;;;;5138489;27;20194;-65
2022/01/21 01:54:27;;;;;;;1.30;0.90;;;;;;;;;;5139202;27;20198;-65
2022/01/21 01:56:55;;;;;;;0.90;0.80;;;;;;;;;;5139167;27;20589;-65
2022/01/21 01:59:23;;;;;;;1.02;0.73;;;;;;;;;;5138882;27;20207;-66
2022/01/21 02:01:55;;;;;;;1.00;0.80;;;;;;;;;;5138527;27;20218;-66
2022/01/21 02:04:23;;;;;;;1.30;0.80;;;;;;;;;;5139443;27;20573;-66
2022/01/21 02:06:51;;;;;;;1.10;0.82;;;;;;;;;;5138494;27;20465;-65
2022/01/21 02:09:18;;;;;;;1.38;0.77;;;;;;;;;;5138716;27;20213;-65
2022/01/21 02:11:46;;;;;;;1.15;0.82;;;;;;;;;;5138458;27;20586;-65
2022/01/21 02:14:19;;;;;;;1.00;0.80;;;;;;;;;;5139215;27;20202;-66
2022/01/21 02:22:32;;;;;;;1.10;0.85;;;;;;;;;;5135711;28;20204;-64
2022/01/21 02:25:15;;;;;;;1.85;0.90;;;;;;;;;;5133336;28;20294;-66
2022/01/21 02:27:42;;;;;;;0.82;0.60;;;;;;;;;;5115035;28;20195;-66
2022/01/21 02:30:17;;;;;;;0.93;0.70;;;;;;;;;;5116150;28;20203;-67
2022/01/21 02:32:46;;;;;;;1.10;0.80;;;;;;;;;;5116374;28;20203;-67
2022/01/21 02:35:14;;;;;;;1.10;0.70;;;;;;;;;;5122058;28;20275;-64
2022/01/21 02:37:42;;;;;;;0.90;0.65;;;;;;;;;;5115965;28;20284;-67
2022/01/21 02:40:12;;;;;;;1.13;0.70;;;;;;;;;;5135657;27;20257;-65
2022/01/21 02:42:39;;;;;;;1.10;0.80;;;;;;;;;;5135459;27;20213;-64
2022/01/21 02:45:08;;;;;;;0.70;0.45;;;;;;;;;;5120834;27;20199;-64
2022/01/21 02:47:35;;;;;;;1.13;0.90;;;;;;;;;;5115887;28;20264;-64
2022/01/21 02:50:03;;;;;;;1.00;0.88;;;;;;;;;;5114980;28;20528;-64
2022/01/21 02:52:39;;;;;;;1.48;0.80;;;;;;;;;;5114758;28;20214;-64
2022/01/21 02:55:09;;;;;;;1.08;0.85;;;;;;;;;;5127375;28;20209;-64
2022/01/21 02:57:36;;;;;;;0.80;0.68;;;;;;;;;;5117370;27;20200;-64
2022/01/21 03:00:04;;;;;;;0.90;0.63;;;;;;;;;;5127231;28;20257;-64
2022/01/21 03:02:32;;;;;;;1.05;0.82;;;;;;;;;;5127288;27;20282;-64
2022/01/21 03:05:04;;;;;;;1.65;0.77;;;;;;;;;;5114203;28;20200;-65
2022/01/21 03:07:31;;;;;;;1.02;0.60;;;;;;;;;;5114379;28;20234;-67
2022/01/21 03:09:59;;;;;;;0.70;0.50;;;;;;;;;;5133518;28;20578;-66
2022/01/21 03:12:28;;;;;;;0.80;0.70;;;;;;;;;;5134415;27;20209;-64
2022/01/21 03:14:55;;;;;;;1.35;0.85;;;;;;;;;;5134730;27;20199;-64
2022/01/21 03:17:22;;;;;;;0.90;0.63;;;;;;;;;;5134858;27;20210;-66
2022/01/21 03:19:50;;;;;;;0.70;0.50;;;;;;;;;;5132805;27;20222;-66
2022/01/21 03:22:17;;;;;;;1.33;0.90;;;;;;;;;;5134361;27;20210;-66
2022/01/21 03:24:45;;;;;;;1.33;0.68;;;;;;;;;;5120301;27;20500;-64
2022/01/21 03:27:12;;;;;;;1.08;0.73;;;;;;;;;;5120339;28;20195;-64
2022/01/21 03:29:41;;;;;;;1.10;0.60;;;;;;;;;;5126142;27;20195;-66
2022/01/21 03:32:08;;;;;;;0.63;0.50;;;;;;;;;;5121106;28;20214;-66
2022/01/21 03:34:36;;;;;;;0.85;0.63;;;;;;;;;;5112535;28;20196;-66
2022/01/21 03:37:04;;;;;;;1.05;0.60;;;;;;;;;;5101498;28;20195;-66
2022/01/21 03:39:31;;;;;;;0.63;0.60;;;;;;;;;;5116035;28;20614;-66
2022/01/21 03:41:59;;;;;;;0.70;0.70;;;;;;;;;;5120014;28;20195;-66
2022/01/21 03:44:26;;;;;;;0.88;0.57;;;;;;;;;;5120249;28;20571;-66
2022/01/21 03:46:55;;;;;;;0.93;0.52;;;;;;;;;;5121188;28;20210;-66
2022/01/21 03:49:22;;;;;;;0.50;0.50;;;;;;;;;;5118306;28;20191;-66
2022/01/21 03:51:50;;;;;;;0.70;0.50;;;;;;;;;;5120718;28;20485;-66
2022/01/21 03:54:17;;;;;;;1.25;0.60;;;;;;;;;;5105773;28;20199;-67
2022/01/21 03:56:44;;;;;;;1.50;0.70;;;;;;;;;;5100793;28;20211;-67
2022/01/21 03:59:12;;;;;;;1.25;0.65;;;;;;;;;;5119552;28;20223;-66
2022/01/21 04:01:39;;;;;;;1.15;0.77;;;;;;;;;;5119445;28;20206;-66
2022/01/21 04:04:08;;;;;;;1.02;0.55;;;;;;;;;;5115263;28;20206;-66
2022/01/21 04:06:35;;;;;;;1.15;0.50;;;;;;;;;;5099730;28;20203;-66
2022/01/21 04:09:03;;;;;;;1.13;0.68;;;;;;;;;;5111058;28;20652;-66
2022/01/21 04:11:30;;;;;;;1.00;0.63;;;;;;;;;;5119801;28;20591;-66
2022/01/21 04:13:58;;;;;;;0.85;0.50;;;;;;;;;;5119680;28;20209;-66
2022/01/21 04:16:25;;;;;;;1.60;0.52;;;;;;;;;;5119338;28;20302;-67
2022/01/21 04:18:53;;;;;;;0.85;0.57;;;;;;;;;;5117891;28;20546;-66
2022/01/21 04:21:21;;;;;;;0.70;0.50;;;;;;;;;;5119865;28;20202;-66
2022/01/21 04:23:49;;;;;;;0.77;0.63;;;;;;;;;;5119823;28;20203;-66
2022/01/21 04:26:16;;;;;;;0.88;0.60;;;;;;;;;;5119079;28;20505;-66
2022/01/21 04:28:43;;;;;;;0.93;0.45;;;;;;;;;;5109106;28;20290;-65
2022/01/21 04:31:11;;;;;;;0.88;0.60;;;;;;;;;;5116114;28;20196;-66
2022/01/21 04:33:39;;;;;;;0.75;0.43;;;;;;;;;;5118291;28;20479;-66
2022/01/21 04:36:06;;;;;;;1.38;0.57;;;;;;;;;;5115395;28;20199;-67
2022/01/21 04:38:36;;;;;;;0.57;0.50;;;;;;;;;;5111138;28;20227;-66
2022/01/21 04:41:18;;;;;;;0.90;0.60;;;;;;;;;;5097990;28;20200;-66
2022/01/21 04:49:15;;;;;;;0.90;0.70;;;;;;;;;;5099127;28;20252;-66
2022/01/21 04:52:02;;;;;;;0.95;0.65;;;;;;;;;;5098706;28;20230;-66
2022/01/21 04:54:30;;;;;;;1.13;0.50;;;;;;;;;;5098230;28;20235;-66
2022/01/21 04:56:58;;;;;;;0.93;0.50;;;;;;;;;;5097781;28;20208;-66
2022/01/21 04:59:26;;;;;;;1.02;0.60;;;;;;;;;;5113418;28;20530;-66
2022/01/21 05:01:53;;;;;;;1.17;0.60;;;;;;;;;;5099084;28;20207;-65
2022/01/21 05:04:21;;;;;;;0.75;0.50;;;;;;;;;;5098205;28;20260;-64
2022/01/21 05:06:50;;;;;;;1.02;0.60;;;;;;;;;;5097518;28;20226;-66
2022/01/21 05:09:19;;;;;;;1.10;0.63;;;;;;;;;;5110732;28;20195;-64
2022/01/21 05:11:52;;;;;;;0.95;0.65;;;;;;;;;;5103228;28;20614;-66
2022/01/21 05:14:22;;;;;;;1.33;0.70;;;;;;;;;;5098302;28;20497;-67
2022/01/21 05:16:52;;;;;;;0.63;0.60;;;;;;;;;;5117251;28;20209;-66
2022/01/21 05:19:20;;;;;;;0.88;0.60;;;;;;;;;;5116373;28;20222;-67
2022/01/21 05:21:50;;;;;;;0.65;0.63;;;;;;;;;;5118184;28;20458;-64
2022/01/21 05:24:19;;;;;;;0.55;0.50;;;;;;;;;;5117099;28;20210;-66
2022/01/21 05:26:53;;;;;;;1.20;0.63;;;;;;;;;;5118148;28;20261;-66
2022/01/21 05:29:21;;;;;;;1.20;0.63;;;;;;;;;;5111725;28;20227;-66
2022/01/21 05:31:48;;;;;;;1.38;0.65;;;;;;;;;;5106585;28;20492;-64
2022/01/21 05:34:15;;;;;;;1.05;0.60;;;;;;;;;;5112946;28;20200;-64
2022/01/21 05:36:43;;;;;;;0.95;0.70;;;;;;;;;;5112792;28;20488;-66
2022/01/21 05:39:10;;;;;;;1.42;0.60;;;;;;;;;;5108670;28;20501;-64
2022/01/21 05:41:38;;;;;;;0.55;0.40;;;;;;;;;;5115709;28;20206;-66
2022/01/21 05:44:13;;;;;;;1.00;0.60;;;;;;;;;;5116882;28;20290;-64
2022/01/21 05:46:54;;;;;;;1.38;0.60;;;;;;;;;;5114965;28;20198;-66
2022/01/21 05:49:22;;;;;;;1.75;0.55;;;;;;;;;;5116830;28;20283;-66
2022/01/21 05:51:49;;;;;;;1.15;0.65;;;;;;;;;;5095330;28;20203;-66
2022/01/21 05:54:23;;;;;;;2.13;0.60;;;;;;;;;;5096550;28;20199;-64
2022/01/21 05:56:50;;;;;;;0.95;0.73;;;;;;;;;;5104903;28;20256;-66
2022/01/21 05:59:19;;;;;;;1.95;1.00;;;;;;;;;;5095822;28;20270;-64
2022/01/21 06:01:46;;;;;;;1.65;0.57;;;;;;;;;;5094443;28;20207;-66
2022/01/21 06:04:14;;;;;;;1.45;0.70;;;;;;;;;;5095544;28;20250;-66
2022/01/21 06:06:41;;;;;;;1.10;0.60;;;;;;;;;;5094896;28;20204;-66
2022/01/21 06:09:09;;;;;;;1.02;0.63;;;;;;;;;;5094642;28;20590;-66
2022/01/21 06:11:36;;;;;;;1.48;0.60;;;;;;;;;;5098808;28;20195;-67
2022/01/21 06:14:04;;;;;;;0.70;0.50;;;;;;;;;;5115132;28;20199;-66
2022/01/21 06:16:34;;;;;;;0.90;0.55;;;;;;;;;;5112298;28;20218;-66
2022/01/21 06:19:02;;;;;;;1.45;0.70;;;;;;;;;;5114798;28;20235;-66
2022/01/21 06:21:29;;;;;;;1.17;0.70;;;;;;;;;;5114109;28;20207;-67
2022/01/21 06:23:56;;;;;;;0.90;0.80;;;;;;;;;;5114440;28;20194;-66
2022/01/21 06:26:23;;;;;;;1.02;0.88;;;;;;;;;;5115010;28;20207;-64
2022/01/21 06:28:51;;;;;;;1.35;0.55;;;;;;;;;;5111214;28;20610;-66
2022/01/21 06:31:18;;;;;;;1.90;0.80;;;;;;;;;;5094560;28;20191;-66
2022/01/21 06:33:47;;;;;;;1.30;0.60;;;;;;;;;;5099960;28;20199;-66
2022/01/21 06:36:14;;;;;;;0.90;0.57;;;;;;;;;;5093994;28;20214;-66
2022/01/21 06:38:42;;;;;;;1.77;0.63;;;;;;;;;;5095458;28;20214;-67
2022/01/21 06:41:09;;;;;;;0.65;0.60;;;;;;;;;;5094595;28;20200;-64
2022/01/21 06:43:36;;;;;;;1.10;0.60;;;;;;;;;;5096753;28;20215;-66
2022/01/21 06:46:07;;;;;;;0.98;0.50;;;;;;;;;;5113792;28;20199;-66
2022/01/21 06:48:34;;;;;;;0.98;0.60;;;;;;;;;;5101280;28;20199;-66
2022/01/21 06:51:06;;;;;;;0.77;0.60;;;;;;;;;;5094601;28;20200;-66
2022/01/21 06:53:33;;;;;;;1.02;0.68;;;;;;;;;;5095332;28;20208;-65
2022/01/21 06:56:00;;;;;;;1.10;0.60;;;;;;;;;;5104383;28;20214;-66
2022/01/21 06:58:28;;;;;;;0.95;0.40;;;;;;;;;;5115634;28;20195;-65
2022/01/21 07:00:55;;;;;;;0.85;0.60;;;;;;;;;;5115373;28;20237;-66
2022/01/21 07:03:24;;;;;;;1.27;0.70;;;;;;;;;;5115166;28;20222;-66
2022/01/21 07:05:51;;;;;;;1.52;0.70;;;;;;;;;;5106867;28;20196;-66
2022/01/21 07:08:20;;;;;;;0.75;0.60;;;;;;;;;;5099556;28;20232;-66
2022/01/21 07:10:47;;;;;;;1.00;0.70;;;;;;;;;;5098616;28;20195;-66
2022/01/21 07:13:15;;;;;;;1.30;0.68;;;;;;;;;;5098238;28;20222;-66
2022/01/21 07:15:42;;;;;;;1.13;0.60;;;;;;;;;;5097553;28;20196;-66
2022/01/21 07:18:09;;;;;;;1.02;0.70;;;;;;;;;;5097677;28;20228;-66
2022/01/21 07:20:38;;;;;;;1.15;0.52;;;;;;;;;;5098434;28;20621;-66
2022/01/21 07:23:05;;;;;;;1.25;0.50;;;;;;;;;;5098294;28;20196;-66
2022/01/21 07:25:34;;;;;;;1.38;0.80;;;;;;;;;;5097345;28;20212;-66
2022/01/21 07:28:01;;;;;;;1.67;0.80;;;;;;;;;;5098028;28;20203;-66
2022/01/21 07:30:29;;;;;;;1.30;0.70;;;;;;;;;;5097265;28;20207;-66
2022/01/21 07:32:56;;;;;;;0.95;0.60;;;;;;;;;;5097412;28;20211;-66
2022/01/21 07:35:23;;;;;;;0.77;0.60;;;;;;;;;;5109516;28;20229;-66
2022/01/21 07:37:51;;;;;;;0.70;0.63;;;;;;;;;;5111660;28;20198;-66
2022/01/21 07:40:19;;;;;;;1.20;0.65;;;;;;;;;;5098004;28;20598;-66
2022/01/21 07:42:47;;;;;;;0.80;0.60;;;;;;;;;;5096729;28;20200;-66
2022/01/21 07:45:15;;;;;;;1.48;0.63;;;;;;;;;;5096591;28;20203;-66
2022/01/21 07:47:42;;;;;;;1.40;0.90;;;;;;;;;;5096817;28;20212;-66
2022/01/21 07:50:09;;;;;;;0.90;0.60;;;;;;;;;;5111984;28;20660;-66
2022/01/21 07:52:37;;;;;;;1.38;0.70;;;;;;;;;;5117563;28;20210;-66
2022/01/21 07:55:04;;;;;;;0.70;0.57;;;;;;;;;;5116559;28;20660;-66
2022/01/21 07:57:31;;;;;;;1.63;0.68;;;;;;;;;;5117623;28;20207;-66
2022/01/21 08:00:00;;;;;;;1.02;0.70;;;;;;;;;;5104043;28;20227;-66
2022/01/21 08:02:28;;;;;;;0.95;0.68;;;;;;;;;;5096718;28;20219;-66
2022/01/21 08:04:57;;;;;;;0.88;0.57;;;;;;;;;;5109666;28;20554;-66
2022/01/21 08:07:24;;;;;;;1.23;0.80;;;;;;;;;;5115105;28;20238;-66
2022/01/21 08:12:55;;;;;;;0.95;0.70;;;;;;;;;;5113046;28;20319;-64
2022/01/21 08:15:24;;;;;;;1.30;0.80;;;;;;;;;;5101956;27;20210;-64
2022/01/21 08:17:51;;;;;;;1.45;0.90;;;;;;;;;;5097788;28;20728;-66
2022/01/21 08:20:18;;;;;;;8.60;7.85;;;;;;;;;;5097232;28;20249;-64
2022/01/21 08:22:46;;;;;;;8.77;7.97;;;;;;;;;;5096541;28;20211;-66
2022/01/21 08:25:13;;;;;;;8.38;7.68;;;;;;;;;;5116654;28;20221;-66
2022/01/21 08:27:41;;;;;;;9.82;7.68;;;;;;;;;;5117206;28;20198;-64
2022/01/21 08:30:09;;;;;;;8.13;6.75;;;;;;;;;;5117455;28;20285;-66
2022/01/21 08:32:38;;;;;;;7.03;6.10;;;;;;;;;;5115964;28;20198;-66
2022/01/21 08:35:06;;;;;;;6.18;5.72;;;;;;;;;;5099762;28;20272;-66
2022/01/21 08:37:33;;;;;;;7.95;5.53;;;;;;;;;;5112300;28;20210;-64
2022/01/21 08:40:00;;;;;;;6.28;5.75;;;;;;;;;;5113815;28;20237;-66
2022/01/21 08:42:28;;;;;;;5.70;5.10;;;;;;;;;;5115525;28;20286;-67
2022/01/21 08:44:55;;;;;;;4.90;4.50;;;;;;;;;;5116107;28;20629;-66
2022/01/21 08:47:23;;;;;;;4.70;4.30;;;;;;;;;;5116136;28;20213;-66
2022/01/21 08:49:52;;;;;;;4.57;4.22;;;;;;;;;;5114454;28;20219;-66
2022/01/21 08:52:22;;;;;;;4.43;4.00;;;;;;;;;;5111217;28;20187;-66
2022/01/21 08:54:50;;;;;;;4.80;4.05;;;;;;;;;;5095493;28;20207;-64
2022/01/21 08:57:19;;;;;;;3.83;3.42;;;;;;;;;;5095334;28;20211;-67
2022/01/21 08:59:49;;;;;;;3.53;3.22;;;;;;;;;;5094212;28;20648;-66
2022/01/21 09:02:18;;;;;;;3.50;3.20;;;;;;;;;;5092322;28;20523;-66
2022/01/21 09:04:46;;;;;;;4.90;3.17;;;;;;;;;;5093609;28;20602;-66
2022/01/21 09:07:14;;;;;;;3.25;2.95;;;;;;;;;;5094017;28;20200;-66
2022/01/21 09:09:42;;;;;;;3.47;2.80;;;;;;;;;;5105973;28;20195;-66
2022/01/21 09:12:09;;;;;;;4.47;2.95;;;;;;;;;;5110280;28;20214;-66
2022/01/21 09:14:37;;;;;;;3.08;2.80;;;;;;;;;;5093631;28;20211;-66
2022/01/21 09:17:04;;;;;;;3.88;2.60;;;;;;;;;;5093448;28;20211;-64
2022/01/21 09:19:32;;;;;;;2.70;2.50;;;;;;;;;;5092621;28;20232;-66
2022/01/21 09:22:02;;;;;;;3.20;2.90;;;;;;;;;;5094964;28;20226;-66
2022/01/21 09:24:32;;;;;;;3.92;2.40;;;;;;;;;;5094741;28;20199;-66
2022/01/21 09:27:00;;;;;;;38.75;27.42;;;;;;;;;;5094617;28;20582;-64
2022/01/21 09:29:28;;;;;;;28.67;19.00;;;;;;;;;;5099129;28;20289;-64
2022/01/21 09:31:55;;;;;;;19.77;13.25;;;;;;;;;;5114520;28;20203;-66
2022/01/21 09:34:23;;;;;;;17.33;12.80;;;;;;;;;;5111850;28;20199;-64
2022/01/21 09:36:50;;;;;;;19.38;12.45;;;;;;;;;;5093587;28;20199;-64
2022/01/21 09:39:17;;;;;;;18.88;12.20;;;;;;;;;;5103161;28;20198;-64
2022/01/21 09:41:48;;;;;;;19.23;11.90;;;;;;;;;;5099913;28;20515;-64
2022/01/21 09:44:15;;;;;;;15.82;10.68;;;;;;;;;;5110368;28;20276;-66
2022/01/21 09:46:45;;;;;;;14.63;10.65;;;;;;;;;;5094273;28;20199;-66
2022/01/21 09:49:26;;;;;;;15.93;9.65;;;;;;;;;;5095212;28;20310;-66
2022/01/21 09:51:54;;;;;;;17.65;9.40;;;;;;;;;;5098105;28;20221;-66
2022/01/21 09:54:22;;;;;;;15.07;8.48;;;;;;;;;;5114341;28;20230;-64
2022/01/21 09:56:51;;;;;;;14.57;8.95;;;;;;;;;;5115317;28;20602;-66
2022/01/21 09:59:19;;;;;;;12.50;8.30;;;;;;;;;;5115141;28;20206;-66
2022/01/21 10:01:50;;;;;;;12.20;8.18;;;;;;;;;;5113591;28;20234;-66
2022/01/21 10:04:17;;;;;;;10.32;6.95;;;;;;;;;;5112401;28;20195;-66
2022/01/21 10:06:46;;;;;;;10.93;7.40;;;;;;;;;;5093902;28;20227;-66
2022/01/21 10:09:13;;;;;;;11.73;6.57;;;;;;;;;;5103319;28;20206;-68
2022/01/21 10:11:47;;;;;;;10.88;6.68;;;;;;;;;;5114602;28;20202;-68
2022/01/21 10:14:16;;;;;;;10.75;6.68;;;;;;;;;;5112888;28;20202;-67
2022/01/21 10:16:45;;;;;;;10.95;6.28;;;;;;;;;;5098121;28;20482;-68
2022/01/21 10:19:12;;;;;;;10.25;5.80;;;;;;;;;;5113862;28;20329;-67
2022/01/21 10:21:42;;;;;;;13.15;6.45;;;;;;;;;;5097056;28;20641;-67
2022/01/21 10:24:10;;;;;;;11.50;5.90;;;;;;;;;;5094345;28;20210;-66
2022/01/21 10:26:46;;;;;;;10.27;5.68;;;;;;;;;;5093663;28;20591;-66
2022/01/21 10:29:14;;;;;;;10.15;5.43;;;;;;;;;;5094151;28;20292;-67
2022/01/21 10:31:52;;;;;;;8.90;5.40;;;;;;;;;;5094410;28;20316;-66
2022/01/21 10:34:25;;;;;;;11.68;5.53;;;;;;;;;;5095655;28;20210;-66
2022/01/21 10:36:57;;;;;;;9.45;5.25;;;;;;;;;;5113510;28;20222;-66
2022/01/21 10:39:30;;;;;;;15.18;5.70;;;;;;;;;;5104935;28;20287;-66
2022/01/21 10:41:57;;;;;;;9.73;4.82;;;;;;;;;;5097353;28;20226;-68
2022/01/21 10:44:28;;;;;;;9.00;4.57;;;;;;;;;;5098745;28;20203;-67
2022/01/21 10:47:10;;;;;;;8.63;4.25;;;;;;;;;;5098858;28;20274;-67
2022/01/21 10:49:39;;;;;;;9.98;4.20;;;;;;;;;;5097402;28;20204;-66
2022/01/21 10:52:09;;;;;;;9.68;3.85;;;;;;;;;;5097294;28;20191;-66
2022/01/21 10:54:42;;;;;;;7.75;3.97;;;;;;;;;;5096594;28;20235;-66
2022/01/21 10:57:10;;;;;;;8.93;3.95;;;;;;;;;;5108053;28;20510;-67
2022/01/21 10:59:48;;;;;;;10.18;4.13;;;;;;;;;;5118082;28;20230;-67
2022/01/21 11:02:16;;;;;;;9.57;3.92;;;;;;;;;;5117878;28;20254;-66
2022/01/21 11:04:45;;;;;;;6.32;3.50;;;;;;;;;;5099359;28;20211;-66
2022/01/21 11:07:15;;;;;;;9.82;3.88;;;;;;;;;;5096907;28;20199;-66
2022/01/21 11:09:42;;;;;;;7.25;3.38;;;;;;;;;;5109439;28;20285;-66
2022/01/21 11:12:11;;;;;;;9.38;3.45;;;;;;;;;;5100835;28;20200;-67
2022/01/21 11:14:40;;;;;;;7.75;3.10;;;;;;;;;;5099410;28;20204;-66
2022/01/21 11:17:11;;;;;;;9.63;3.47;;;;;;;;;;5116508;27;20199;-66
2022/01/21 11:19:39;;;;;;;5.63;2.95;;;;;;;;;;5098137;28;20522;-66
2022/01/21 11:22:07;;;;;;;7.40;3.40;;;;;;;;;;5097131;28;20234;-66
2022/01/21 11:24:35;;;;;;;7.03;3.38;;;;;;;;;;5097066;28;20658;-66
2022/01/21 11:27:10;;;;;;;6.15;3.47;;;;;;;;;;5096448;28;20200;-66
2022/01/21 11:29:37;;;;;;;6.68;3.20;;;;;;;;;;5096554;28;20264;-67
2022/01/21 11:32:05;;;;;;;7.60;3.60;;;;;;;;;;5097139;28;20204;-66
2022/01/21 11:34:33;;;;;;;6.50;4.03;;;;;;;;;;5097131;28;20797;-68
2022/01/21 11:37:02;;;;;;;8.63;5.13;;;;;;;;;;5115910;28;20199;-66
2022/01/21 11:39:29;;;;;;;8.38;5.05;;;;;;;;;;5114250;28;20195;-66
2022/01/21 11:41:58;;;;;;;9.27;6.20;;;;;;;;;;5114113;28;20211;-67
2022/01/21 11:44:27;;;;;;;8.57;5.43;;;;;;;;;;5099559;28;20579;-66
2022/01/21 11:47:14;;;;;;;9.68;5.55;;;;;;;;;;5076486;28;20231;-67
2022/01/21 11:49:43;;;;;;;8.88;5.05;;;;;;;;;;5097451;28;20199;-66
2022/01/21 11:52:15;;;;;;;8.27;4.63;;;;;;;;;;5105035;28;20191;-66
2022/01/21 11:54:43;;;;;;;7.22;4.35;;;;;;;;;;5101405;28;20192;-66
2022/01/21 11:57:12;;;;;;;8.88;4.68;;;;;;;;;;5095294;28;20200;-66
2022/01/21 11:59:47;;;;;;;12.85;10.23;;;;;;;;;;5114697;28;20203;-66
2022/01/21 12:02:19;;;;;;;15.70;11.85;;;;;;;;;;5111633;28;20211;-66
2022/01/21 12:04:47;;;;;;;12.07;9.82;;;;;;;;;;5095172;28;20198;-67
2022/01/21 12:07:34;;;;;;;10.18;8.35;;;;;;;;;;5113743;27;20192;-66
2022/01/21 12:10:05;;;;;;;13.90;8.73;;;;;;;;;;5104188;28;20201;-66
2022/01/21 12:12:51;;;;;;;9.48;8.13;;;;;;;;;;5115949;28;20199;-67
2022/01/21 12:15:23;;;;;;;9.00;8.10;;;;;;;;;;5116320;28;20252;-67
2022/01/21 12:17:56;;;;;;;8.57;6.90;;;;;;;;;;5116342;28;20253;-66
2022/01/21 12:20:31;;;;;;;9.63;7.40;;;;;;;;;;5111366;28;20194;-66
2022/01/21 12:23:09;;;;;;;9.20;6.70;;;;;;;;;;5116941;28;20275;-66
2022/01/21 12:25:58;;;;;;;9.65;6.40;;;;;;;;;;5115697;28;20629;-66
2022/01/21 12:28:25;;;;;;;9.45;6.53;;;;;;;;;;5103534;28;20603;-66
2022/01/21 12:30:53;;;;;;;9.60;6.25;;;;;;;;;;5095932;28;20203;-66
2022/01/21 12:33:22;;;;;;;8.55;6.22;;;;;;;;;;5095289;28;20212;-66
2022/01/21 12:35:55;;;;;;;7.43;5.30;;;;;;;;;;5103957;28;20195;-67
2022/01/21 12:41:26;;;;;;;7.40;5.32;;;;;;;;;;5099884;28;20277;-68
2022/01/21 12:43:56;;;;;;;6.68;5.25;;;;;;;;;;5094012;28;20199;-66
2022/01/21 12:46:29;;;;;;;7.05;4.82;;;;;;;;;;5094573;28;20336;-67
2022/01/21 12:48:57;;;;;;;6.57;5.28;;;;;;;;;;5095354;28;20208;-67
2022/01/21 12:51:45;;;;;;;5.60;4.85;;;;;;;;;;5098531;28;20693;-66
2022/01/21 12:56:59;;;;;;;5.30;4.80;;;;;;;;;;5115263;28;20544;-66
2022/01/21 12:59:28;;;;;;;7.50;4.45;;;;;;;;;;5114653;28;20234;-67
2022/01/21 13:01:58;;;;;;;6.07;4.18;;;;;;;;;;5113151;28;20215;-67
2022/01/21 13:04:34;;;;;;;7.85;4.65;;;;;;;;;;5114176;28;20187;-67
2022/01/21 13:07:07;;;;;;;4.72;4.07;;;;;;;;;;5114240;28;20224;-67
2022/01/21 13:09:45;;;;;;;5.78;4.00;;;;;;;;;;5079085;28;20214;-67
2022/01/21 13:12:14;;;;;;;4.45;3.72;;;;;;;;;;5095220;28;20195;-68
2022/01/21 13:14:53;;;;;;;4.63;3.63;;;;;;;;;;5087877;28;20208;-67
2022/01/21 13:17:20;;;;;;;5.00;3.78;;;;;;;;;;5093039;28;20207;-68
2022/01/21 13:19:49;;;;;;;4.07;3.55;;;;;;;;;;5094753;28;20192;-68
2022/01/21 13:22:20;;;;;;;5.13;3.13;;;;;;;;;;5102103;28;20242;-67
2022/01/21 13:24:57;;;;;;;4.43;3.25;;;;;;;;;;5113044;28;20191;-67
2022/01/21 13:27:26;;;;;;;4.20;3.05;;;;;;;;;;5114499;28;20249;-67
2022/01/21 13:30:00;;;;;;;4.20;2.75;;;;;;;;;;5114509;28;20198;-67
2022/01/21 13:32:27;;;;;;;2.95;2.60;;;;;;;;;;5114334;28;20206;-67
2022/01/21 13:35:07;;;;;;;3.38;2.67;;;;;;;;;;5110951;28;20195;-68
2022/01/21 13:37:34;;;;;;;4.18;2.70;;;;;;;;;;5094573;28;20218;-67
2022/01/21 13:40:04;;;;;;;5.03;2.92;;;;;;;;;;5107359;28;20225;-67
2022/01/21 13:42:32;;;;;;;4.13;2.50;;;;;;;;;;5105595;28;20246;-67
2022/01/21 13:45:04;;;;;;;2.97;2.20;;;;;;;;;;5107040;28;20202;-68
2022/01/21 13:47:33;;;;;;;3.50;2.40;;;;;;;;;;5094167;28;20306;-67
2022/01/21 13:50:02;;;;;;;2.50;2.30;;;;;;;;;;5095245;28;20196;-67
2022/01/21 13:52:37;;;;;;;4.93;2.28;;;;;;;;;;5102917;28;20191;-67
2022/01/21 13:55:05;;;;;;;2.30;2.10;;;;;;;;;;5105810;28;20218;-67
2022/01/21 13:57:32;;;;;;;6.22;3.13;;;;;;;;;;5094828;28;20591;-67
2022/01/21 14:00:01;;;;;;;3.30;3.00;;;;;;;;;;5094511;28;20199;-67
2022/01/21 14:02:29;;;;;;;4.07;2.42;;;;;;;;;;5093886;28;20226;-67
2022/01/21 14:04:57;;;;;;;3.65;2.65;;;;;;;;;;5093933;28;20191;-67
2022/01/21 14:07:29;;;;;;;3.00;2.40;;;;;;;;;;5095730;28;20537;-67
2022/01/21 14:09:56;;;;;;;3.05;2.30;;;;;;;;;;5082059;28;20199;-67
2022/01/21 14:12:24;;;;;;;2.45;2.17;;;;;;;;;;5094265;28;20203;-67
2022/01/21 14:14:52;;;;;;;2.45;2.13;;;;;;;;;;5093478;28;20491;-67
2022/01/21 14:17:24;;;;;;;2.78;2.25;;;;;;;;;;5093443;28;20214;-68
2022/01/21 14:19:52;;;;;;;2.97;1.88;;;;;;;;;;5094152;28;20195;-67
2022/01/21 14:22:20;;;;;;;2.28;2.03;;;;;;;;;;5094765;28;20238;-68
2022/01/21 14:24:49;;;;;;;2.03;1.77;;;;;;;;;;5099378;28;20234;-67
2022/01/21 14:27:25;;;;;;;2.25;1.83;;;;;;;;;;5113865;28;20508;-68
2022/01/21 14:29:55;;;;;;;2.20;2.00;;;;;;;;;;5114332;28;20195;-67
2022/01/21 14:32:29;;;;;;;2.00;1.80;;;;;;;;;;5096999;28;20280;-67
2022/01/21 14:35:07;;;;;;;2.08;1.70;;;;;;;;;;5097015;28;20551;-67
2022/01/21 14:37:36;;;;;;;1.92;1.83;;;;;;;;;;5076714;28;20196;-67
2022/01/21 14:40:04;;;;;;;1.63;1.52;;;;;;;;;;5113665;28;20601;-67
2022/01/21 14:42:32;;;;;;;1.80;1.70;;;;;;;;;;5113573;28;20625;-67
2022/01/21 14:45:00;;;;;;;1.73;1.60;;;;;;;;;;5113112;28;20226;-67
2022/01/21 14:47:31;;;;;;;2.28;1.60;;;;;;;;;;5110924;28;20199;-67
2022/01/21 14:50:02;;;;;;;1.50;1.40;;;;;;;;;;5089892;28;20198;-68
2022/01/21 14:52:41;;;;;;;1.50;1.40;;;;;;;;;;5114702;28;20682;-67
2022/01/21 14:55:13;;;;;;;1.80;1.40;;;;;;;;;;5105000;28;20200;-67
2022/01/21 14:57:46;;;;;;;1.50;1.40;;;;;;;;;;5095317;28;20641;-67
2022/01/21 15:00:14;;;;;;;2.05;1.60;;;;;;;;;;5093049;28;20192;-67
2022/01/21 15:02:42;;;;;;;1.40;1.08;;;;;;;;;;5093155;28;20235;-67
2022/01/21 15:05:11;;;;;;;1.40;1.27;;;;;;;;;;5110652;28;20199;-67
2022/01/21 15:07:41;;;;;;;1.30;1.20;;;;;;;;;;5100221;28;20324;-67
2022/01/21 15:10:23;;;;;;;1.30;1.20;;;;;;;;;;5112467;28;20215;-67
2022/01/21 15:15:36;;;;;;;1.50;1.40;;;;;;;;;;5112344;28;20601;-67
2022/01/21 15:18:06;;;;;;;1.20;1.10;;;;;;;;;;5113502;28;20535;-67
2022/01/21 15:20:34;;;;;;;2.30;1.20;;;;;;;;;;5112212;28;20230;-67
2022/01/21 15:23:02;;;;;;;1.35;1.05;;;;;;;;;;5113592;28;20215;-67
2022/01/21 15:25:30;;;;;;;1.10;1.00;;;;;;;;;;5114151;28;20203;-67
2022/01/21 15:27:57;;;;;;;1.58;1.10;;;;;;;;;;5102245;27;20200;-67
2022/01/21 15:30:27;;;;;;;1.08;0.90;;;;;;;;;;5097001;28;20200;-67
2022/01/21 15:32:58;;;;;;;1.13;1.00;;;;;;;;;;5096742;28;20270;-67
2022/01/21 15:35:28;;;;;;;1.75;1.10;;;;;;;;;;5104638;28;20231;-67
2022/01/21 15:37:56;;;;;;;1.33;0.98;;;;;;;;;;5114644;28;20203;-68
2022/01/21 15:40:23;;;;;;;1.50;1.10;;;;;;;;;;5097702;28;20203;-68